Time;durP1;ratioP1;P1;durP2;ratioP2;P2;SDS_P1;SDS_P2;PMS_P1;PMS_P2;Temp;Humidity;BMP_temperature;BMP_pressure;BME280_temperature;BME280_humidity;BME280_pressure;Samples;Min_cycle;Max_cycle;Signal;HPM_P1;HPM_P2
2023/06/24 00:00:34;;;;;;;0.00;0.00;;;;;;;16.28;86.31;101224.69;5012219;28;20035;-74
2023/06/24 00:03:02;;;;;;;0.00;0.00;;;;;;;16.26;86.00;101228.81;5049786;28;20696;-73
2023/06/24 00:05:27;;;;;;;0.00;0.00;;;;;;;16.20;86.14;101223.31;5045115;28;20077;-74
2023/06/24 00:07:56;;;;;;;0.00;0.00;;;;;;;16.18;86.31;101222.78;5047765;28;20036;-73
2023/06/24 00:10:22;;;;;;;0.00;0.00;;;;;;;16.20;86.22;101226.06;5037778;28;20099;-73
2023/06/24 00:12:47;;;;;;;0.00;0.00;;;;;;;16.15;86.23;101215.09;5057060;28;20467;-74
2023/06/24 00:15:13;;;;;;;0.00;0.00;;;;;;;16.14;86.49;101218.94;5060656;28;20124;-74
2023/06/24 00:17:39;;;;;;;0.00;0.00;;;;;;;16.12;86.60;101214.81;5051869;28;20033;-74
2023/06/24 00:20:08;;;;;;;0.00;0.00;;;;;;;16.07;87.13;101212.91;5051761;28;20043;-74
2023/06/24 00:22:34;;;;;;;0.00;0.00;;;;;;;16.05;86.83;101209.63;5039711;28;20062;-75
2023/06/24 00:25:00;;;;;;;0.00;0.00;;;;;;;16.00;86.59;101207.72;5029157;28;20044;-75
2023/06/24 00:27:26;;;;;;;0.00;0.00;;;;;;;15.98;86.98;101198.06;5055087;28;20063;-74
2023/06/24 00:29:51;;;;;;;0.00;0.00;;;;;;;15.98;86.83;101209.91;5046698;28;20068;-75
2023/06/24 00:32:17;;;;;;;0.00;0.00;;;;;;;15.97;87.04;101202.75;5035833;28;20063;-75
2023/06/24 00:34:43;;;;;;;0.00;0.00;;;;;;;15.97;87.36;101208.25;5029894;28;20056;-74
2023/06/24 00:37:09;;;;;;;0.00;0.00;;;;;;;15.96;87.37;101208.53;5046037;28;20070;-75
2023/06/24 00:39:34;;;;;;;0.00;0.00;;;;;;;15.93;87.59;101195.31;5042363;28;20038;-74
2023/06/24 00:42:00;;;;;;;0.00;0.00;;;;;;;15.90;87.85;101207.75;5035346;28;20111;-74
2023/06/24 00:44:25;;;;;;;0.00;0.00;;;;;;;15.84;88.16;101190.41;5028469;28;20071;-74
2023/06/24 00:46:51;;;;;;;0.00;0.00;;;;;;;15.83;88.14;101202.56;5040682;28;20025;-75
2023/06/24 00:49:17;;;;;;;0.00;0.00;;;;;;;15.85;88.78;101207.78;5052098;28;20123;-75
2023/06/24 00:51:50;;;;;;;0.00;0.00;;;;;;;15.81;88.33;101199.25;5030199;28;20028;-74
2023/06/24 00:54:19;;;;;;;0.00;0.00;;;;;;;15.75;89.57;101194.81;5031105;28;20082;-74
2023/06/24 00:56:45;;;;;;;0.00;0.00;;;;;;;15.73;89.24;101202.56;5061224;28;20481;-73
2023/06/24 00:59:15;;;;;;;0.00;0.00;;;;;;;15.66;89.51;101191.00;5044822;28;20032;-74
2023/06/24 01:01:41;;;;;;;0.00;0.00;;;;;;;15.63;89.63;101191.56;5047324;28;20035;-74
2023/06/24 01:04:07;;;;;;;0.00;0.00;;;;;;;15.59;89.84;101202.31;5041686;28;20023;-73
2023/06/24 01:06:35;;;;;;;0.00;0.00;;;;;;;15.54;89.85;101188.56;5032363;28;20028;-72
2023/06/24 01:09:02;;;;;;;0.00;0.00;;;;;;;15.48;90.19;101190.53;5029551;28;20059;-73
2023/06/24 01:11:29;;;;;;;0.00;0.00;;;;;;;15.47;90.49;101190.81;5029706;28;20046;-74
2023/06/24 01:13:55;;;;;;;0.00;0.00;;;;;;;15.46;90.42;101198.25;5042020;28;20097;-74
2023/06/24 01:16:36;;;;;;;0.00;0.00;;;;;;;15.45;90.46;101196.59;5031570;28;20453;-71
2023/06/24 01:19:12;;;;;;;0.00;0.00;;;;;;;15.42;90.38;101191.66;5042407;28;20059;-71
2023/06/24 01:22:12;;;;;;;0.00;0.00;;;;;;;15.45;90.55;101190.25;5037744;28;20054;-70
2023/06/24 01:25:02;;;;;;;0.00;0.00;;;;;;;15.48;90.54;101193.28;5028826;28;20108;-71
2023/06/24 01:28:01;;;;;;;0.00;0.00;;;;;;;15.47;90.49;101188.84;5033172;28;20040;-71
2023/06/24 01:30:47;;;;;;;0.00;0.00;;;;;;;15.49;90.69;101194.94;5055607;28;20407;-73
2023/06/24 01:33:22;;;;;;;0.00;0.00;;;;;;;15.46;90.84;101190.00;5040672;28;20020;-72
2023/06/24 01:35:48;;;;;;;0.00;0.00;;;;;;;15.47;91.56;101188.03;5037999;28;20073;-70
2023/06/24 01:38:31;;;;;;;0.00;0.00;;;;;;;15.51;91.36;101195.47;5033631;28;20644;-70
2023/06/24 01:40:58;;;;;;;0.00;0.00;;;;;;;15.50;91.35;101196.56;5035465;28;20096;-72
2023/06/24 01:43:24;;;;;;;0.00;0.00;;;;;;;15.47;91.56;101196.31;5020018;28;20095;-71
2023/06/24 01:45:52;;;;;;;0.00;0.00;;;;;;;15.41;91.92;101192.75;5044264;28;20140;-72
2023/06/24 01:48:28;;;;;;;0.00;0.00;;;;;;;15.33;91.92;101190.53;5035768;28;20111;-70
2023/06/24 01:50:58;;;;;;;0.00;0.00;;;;;;;15.28;92.19;101185.06;5048550;28;20036;-72
2023/06/24 01:53:28;;;;;;;0.00;0.00;;;;;;;15.21;92.39;101184.53;5047998;28;20067;-71
2023/06/24 01:55:56;;;;;;;0.00;0.00;;;;;;;15.17;92.59;101185.09;5058745;28;20052;-70
2023/06/24 01:58:22;;;;;;;0.00;0.00;;;;;;;15.12;92.54;101182.31;5060680;28;20037;-70
2023/06/24 02:00:48;;;;;;;0.00;0.00;;;;;;;15.09;92.42;101185.63;5058490;28;20075;-71
2023/06/24 02:03:15;;;;;;;0.00;0.00;;;;;;;15.07;92.71;101190.63;5046932;28;20028;-71
2023/06/24 02:05:42;;;;;;;0.00;0.00;;;;;;;15.01;92.74;101188.97;5040332;28;21265;-71
2023/06/24 02:08:09;;;;;;;0.00;0.00;;;;;;;15.05;92.62;101192.81;5053855;28;20024;-72
2023/06/24 02:10:38;;;;;;;0.00;0.00;;;;;;;15.02;92.85;101193.38;5041744;28;20408;-70
2023/06/24 02:13:04;;;;;;;0.00;0.00;;;;;;;15.05;93.09;101195.56;5026918;28;20028;-71
2023/06/24 02:15:31;;;;;;;0.00;0.00;;;;;;;15.06;92.66;101194.47;5034629;28;20071;-73
2023/06/24 02:17:57;;;;;;;0.00;0.00;;;;;;;15.07;92.36;101184.25;5050371;28;20040;-72
2023/06/24 02:20:26;;;;;;;0.00;0.00;;;;;;;15.07;92.41;101192.53;5014907;28;20394;-73
2023/06/24 02:22:52;;;;;;;0.00;0.00;;;;;;;15.08;92.36;101189.50;5054378;28;20067;-71
2023/06/24 02:25:18;;;;;;;0.00;0.00;;;;;;;15.07;92.86;101185.09;5037682;28;20064;-71
2023/06/24 02:27:44;;;;;;;0.00;0.00;;;;;;;15.04;92.40;101184.81;5047053;28;20029;-73
2023/06/24 02:30:10;;;;;;;0.00;0.00;;;;;;;15.03;92.78;101178.50;5028613;28;20040;-71
2023/06/24 02:32:38;;;;;;;0.00;0.00;;;;;;;14.98;92.71;101186.75;5028434;28;20025;-72
2023/06/24 02:35:04;;;;;;;0.00;0.00;;;;;;;14.94;93.00;101175.47;5015984;28;20033;-71
2023/06/24 02:37:30;;;;;;;0.00;0.00;;;;;;;14.94;92.83;101180.16;5047802;28;20526;-72
2023/06/24 02:39:57;;;;;;;0.00;0.00;;;;;;;14.91;92.81;101186.22;5024742;28;20036;-71
2023/06/24 02:42:22;;;;;;;0.00;0.00;;;;;;;14.89;92.95;101183.72;5010798;28;20029;-72
2023/06/24 02:44:48;;;;;;;0.00;0.00;;;;;;;14.96;93.57;101177.94;5006867;28;20043;-72
2023/06/24 02:47:16;;;;;;;0.00;0.00;;;;;;;15.11;93.33;101175.19;5029122;28;20040;-72
2023/06/24 02:49:46;;;;;;;0.00;0.00;;;;;;;15.24;92.55;101175.69;5042261;28;20623;-72
2023/06/24 02:52:11;;;;;;;0.00;0.00;;;;;;;15.42;92.48;101183.38;5039438;28;20024;-71
2023/06/24 02:54:39;;;;;;;0.00;0.00;;;;;;;15.59;93.17;101173.94;5025023;28;20455;-72
2023/06/24 02:57:06;;;;;;;0.00;0.00;;;;;;;15.76;92.38;101182.69;5021117;28;20363;-71
2023/06/24 02:59:32;;;;;;;0.00;0.00;;;;;;;15.85;92.29;101178.25;5024791;28;20063;-71
2023/06/24 03:01:59;;;;;;;0.00;0.00;;;;;;;15.96;92.11;101178.22;5006072;28;20033;-71
2023/06/24 03:04:25;;;;;;;0.00;0.00;;;;;;;16.04;91.80;101185.91;5050010;28;20025;-71
2023/06/24 03:06:52;;;;;;;0.00;0.00;;;;;;;16.14;91.58;101194.13;5019710;28;20049;-72
2023/06/24 03:09:18;;;;;;;0.00;0.00;;;;;;;16.20;91.51;101190.22;5055925;28;20089;-73
2023/06/24 03:11:44;;;;;;;0.00;0.00;;;;;;;16.25;91.50;101185.78;5039368;28;20062;-72
2023/06/24 03:14:11;;;;;;;0.00;0.00;;;;;;;16.31;91.28;101188.22;5040085;28;20565;-72
2023/06/24 03:16:38;;;;;;;0.00;0.00;;;;;;;16.39;91.22;101179.31;5046647;28;20051;-73
2023/06/24 03:19:04;;;;;;;0.00;0.00;;;;;;;16.47;90.92;101177.06;5027922;28;20506;-71
2023/06/24 03:21:30;;;;;;;0.00;0.00;;;;;;;16.54;90.82;101183.94;5032187;28;20542;-72
2023/06/24 03:23:55;;;;;;;0.00;0.00;;;;;;;16.55;90.28;101180.03;5032992;28;20123;-71
2023/06/24 03:26:21;;;;;;;0.00;0.00;;;;;;;16.57;90.06;101175.06;5036957;28;20115;-72
2023/06/24 03:28:46;;;;;;;0.00;0.00;;;;;;;16.57;89.84;101172.31;5049282;28;20037;-73
2023/06/24 03:31:15;;;;;;;0.00;0.00;;;;;;;16.66;89.34;101179.94;5012091;28;20031;-72
2023/06/24 03:33:44;;;;;;;0.00;0.00;;;;;;;16.65;89.67;101179.13;5050297;28;20178;-73
2023/06/24 03:36:10;;;;;;;0.00;0.00;;;;;;;16.64;89.56;101174.72;5052399;28;20024;-72
2023/06/24 03:38:35;;;;;;;0.00;0.00;;;;;;;16.65;89.28;101167.28;5034876;28;20031;-76
2023/06/24 03:41:00;;;;;;;0.00;0.00;;;;;;;16.65;89.13;101161.75;5019071;28;20033;-75
2023/06/24 03:43:26;;;;;;;0.00;0.00;;;;;;;16.68;89.01;101166.69;5026608;28;20051;-73
2023/06/24 03:45:51;;;;;;;0.00;0.00;;;;;;;16.71;89.36;101174.41;5048234;28;20505;-74
2023/06/24 03:48:17;;;;;;;0.00;0.00;;;;;;;16.76;89.35;101168.81;5033151;28;20048;-75
2023/06/24 03:50:42;;;;;;;0.00;0.00;;;;;;;16.80;88.88;101180.94;5051909;28;20032;-74
2023/06/24 03:53:08;;;;;;;0.00;0.00;;;;;;;16.82;88.34;101172.34;5048801;28;20085;-74
2023/06/24 03:55:33;;;;;;;0.00;0.00;;;;;;;16.83;88.33;101174.81;5025365;28;20795;-75
2023/06/24 03:57:58;;;;;;;0.00;0.00;;;;;;;16.82;88.39;101173.19;5015248;28;20033;-73
2023/06/24 04:00:24;;;;;;;0.00;0.00;;;;;;;16.85;87.90;101178.16;5052374;28;20466;-74
2023/06/24 04:02:52;;;;;;;0.00;0.00;;;;;;;16.80;88.12;101183.69;5058053;28;20039;-74
2023/06/24 04:05:17;;;;;;;0.00;0.00;;;;;;;16.83;88.25;101180.34;5031402;28;20029;-73
2023/06/24 04:07:46;;;;;;;0.00;0.00;;;;;;;16.87;88.49;101186.97;5067978;28;20029;-73
2023/06/24 04:10:12;;;;;;;0.00;0.00;;;;;;;16.88;88.40;101176.75;5011687;28;20505;-73
2023/06/24 04:12:38;;;;;;;0.00;0.00;;;;;;;16.94;88.51;101189.41;5043962;28;20025;-74
2023/06/24 04:15:04;;;;;;;0.00;0.00;;;;;;;17.01;88.30;101183.53;5055322;28;20044;-74
2023/06/24 04:17:30;;;;;;;0.00;0.00;;;;;;;17.04;88.06;101180.19;5013115;28;20032;-72
2023/06/24 04:19:56;;;;;;;0.00;0.00;;;;;;;17.07;87.48;101179.63;5018234;28;20056;-74
2023/06/24 04:22:21;;;;;;;0.00;0.00;;;;;;;17.09;87.94;101180.97;5017230;28;20112;-73
2023/06/24 04:24:47;;;;;;;0.00;0.00;;;;;;;17.14;87.36;101185.63;5019830;28;20103;-74
2023/06/24 04:27:12;;;;;;;0.00;0.00;;;;;;;17.16;87.60;101177.06;5023292;28;20468;-74
2023/06/24 04:29:38;;;;;;;0.00;0.00;;;;;;;17.21;87.75;101175.03;4989922;28;20497;-74
2023/06/24 04:32:03;;;;;;;0.00;0.00;;;;;;;17.22;87.65;101176.69;5023374;28;20036;-74
2023/06/24 04:34:29;;;;;;;0.00;0.00;;;;;;;17.21;87.15;101172.28;4999508;28;20400;-74
2023/06/24 04:36:54;;;;;;;0.00;0.00;;;;;;;17.25;87.08;101184.41;5038304;28;20094;-74
2023/06/24 04:39:20;;;;;;;0.00;0.00;;;;;;;17.31;87.47;101196.22;5040207;28;20152;-73
2023/06/24 04:41:46;;;;;;;0.00;0.00;;;;;;;17.34;87.18;101190.13;5016003;28;20075;-74
2023/06/24 04:44:12;;;;;;;0.00;0.00;;;;;;;17.33;86.69;101182.13;5036975;28;20044;-73
2023/06/24 04:46:39;;;;;;;0.00;0.00;;;;;;;17.49;86.16;101191.88;5033404;28;20020;-74
2023/06/24 04:49:05;;;;;;;0.00;0.00;;;;;;;17.48;86.39;101190.25;5037678;28;20029;-74
2023/06/24 04:51:30;;;;;;;0.00;0.00;;;;;;;17.46;86.47;101186.94;5003870;28;20112;-72
2023/06/24 04:53:56;;;;;;;0.00;0.00;;;;;;;17.44;86.62;101194.72;5018680;28;20029;-73
2023/06/24 04:56:21;;;;;;;0.00;0.00;;;;;;;17.41;86.91;101184.25;5022600;28;20033;-74
2023/06/24 04:58:47;;;;;;;0.00;0.00;;;;;;;17.40;86.35;101188.94;5004684;28;20081;-74
2023/06/24 05:01:12;;;;;;;0.00;0.00;;;;;;;17.42;86.95;101196.94;5033672;28;20116;-73
2023/06/24 05:03:38;;;;;;;0.00;0.00;;;;;;;17.41;86.27;101196.13;5014089;28;20028;-74
2023/06/24 05:06:03;;;;;;;0.00;0.00;;;;;;;17.46;86.57;101198.00;5019672;28;20584;-75
2023/06/24 05:08:28;;;;;;;0.00;0.00;;;;;;;17.56;86.22;101202.59;5022062;28;20024;-74
2023/06/24 05:10:54;;;;;;;0.00;0.00;;;;;;;17.63;86.51;101192.81;5016436;28;20021;-73
2023/06/24 05:13:19;;;;;;;0.00;0.00;;;;;;;17.72;86.07;101193.00;5010290;28;20040;-73
2023/06/24 05:15:45;;;;;;;0.00;0.00;;;;;;;17.73;85.75;101191.06;5019610;28;20239;-74
2023/06/24 05:18:10;;;;;;;0.00;0.00;;;;;;;17.78;86.03;101191.81;5007327;28;20123;-74
2023/06/24 05:20:35;;;;;;;0.00;0.00;;;;;;;17.85;85.41;101194.22;5038683;28;20040;-74
2023/06/24 05:23:01;;;;;;;0.00;0.00;;;;;;;17.88;85.94;101193.63;5010171;28;20171;-74
2023/06/24 05:25:26;;;;;;;0.00;0.00;;;;;;;17.94;85.56;101197.97;4994658;28;20033;-74
2023/06/24 05:27:52;;;;;;;0.00;0.00;;;;;;;18.03;85.46;101197.34;5032031;28;20041;-74
2023/06/24 05:30:17;;;;;;;0.00;0.00;;;;;;;18.07;85.75;101195.63;5025249;28;20056;-74
2023/06/24 05:32:43;;;;;;;0.00;0.00;;;;;;;18.14;84.97;101198.84;5022511;28;20029;-75
2023/06/24 05:35:08;;;;;;;0.00;0.00;;;;;;;18.22;85.39;101203.69;5006188;28;20034;-73
2023/06/24 05:37:34;;;;;;;0.00;0.00;;;;;;;18.34;84.66;101203.28;5034576;28;20548;-75
2023/06/24 05:40:01;;;;;;;0.00;0.00;;;;;;;18.44;84.83;101200.34;5031900;28;20115;-74
2023/06/24 05:42:27;;;;;;;0.00;0.00;;;;;;;18.53;83.96;101208.78;5031485;28;20022;-74
2023/06/24 05:44:52;;;;;;;0.00;0.00;;;;;;;18.54;84.03;101202.13;5020058;28;20041;-74
2023/06/24 05:47:18;;;;;;;0.00;0.00;;;;;;;18.52;84.29;101196.06;5011165;28;20060;-71
2023/06/24 05:49:43;;;;;;;0.00;0.00;;;;;;;18.51;84.26;101199.94;5028358;28;20063;-73
2023/06/24 05:52:09;;;;;;;0.00;0.00;;;;;;;18.53;84.57;101196.88;5008556;28;20729;-74
2023/06/24 05:54:34;;;;;;;0.00;0.00;;;;;;;18.54;84.52;101206.84;4983635;28;20116;-73
2023/06/24 05:56:59;;;;;;;0.00;0.00;;;;;;;18.51;84.51;101207.44;5002664;28;20369;-75
2023/06/24 05:59:25;;;;;;;0.00;0.00;;;;;;;18.57;85.03;101209.00;5008723;28;20044;-74
2023/06/24 06:01:50;;;;;;;0.00;0.00;;;;;;;18.62;84.53;101204.22;5018835;28;20041;-74
2023/06/24 06:04:16;;;;;;;0.00;0.00;;;;;;;18.77;84.46;101205.09;5030935;28;20030;-73
2023/06/24 06:06:41;;;;;;;0.00;0.00;;;;;;;18.89;83.97;101197.16;4993490;28;20453;-74
2023/06/24 06:09:07;;;;;;;0.00;0.00;;;;;;;19.04;83.75;101207.16;5008618;28;20036;-74
2023/06/24 06:11:32;;;;;;;0.00;0.00;;;;;;;19.21;83.72;101206.56;5010108;28;20021;-75
2023/06/24 06:13:57;;;;;;;0.00;0.00;;;;;;;19.32;82.80;101208.03;4997008;28;20163;-72
2023/06/24 06:16:23;;;;;;;0.00;0.00;;;;;;;19.42;82.54;101203.41;5031958;28;20049;-73
2023/06/24 06:18:49;;;;;;;0.00;0.00;;;;;;;19.53;82.05;101213.16;5021300;28;20040;-74
2023/06/24 06:21:14;;;;;;;0.00;0.00;;;;;;;19.69;81.83;101206.19;5028560;28;20060;-74
2023/06/24 06:23:40;;;;;;;0.00;0.00;;;;;;;19.84;81.21;101204.25;5045122;28;20459;-75
2023/06/24 06:26:05;;;;;;;0.00;0.00;;;;;;;19.84;80.79;101207.03;5029136;28;20025;-75
2023/06/24 06:28:31;;;;;;;0.00;0.00;;;;;;;19.84;80.83;101201.47;5044220;28;20079;-73
2023/06/24 06:30:57;;;;;;;0.00;0.00;;;;;;;19.79;80.68;101212.69;5031448;28;20064;-74
2023/06/24 06:33:22;;;;;;;0.00;0.00;;;;;;;19.65;81.35;101199.59;5032711;28;20063;-73
2023/06/24 06:35:48;;;;;;;0.00;0.00;;;;;;;19.76;81.18;101205.78;5026004;28;20032;-75
2023/06/24 06:38:14;;;;;;;0.00;0.00;;;;;;;19.91;80.54;101207.44;5060861;28;20021;-74
2023/06/24 06:40:40;;;;;;;0.00;0.00;;;;;;;19.98;80.37;101205.06;5026205;28;20483;-73
2023/06/24 06:43:05;;;;;;;0.00;0.00;;;;;;;19.99;80.43;101206.72;5037868;28;20033;-74
2023/06/24 06:45:31;;;;;;;0.00;0.00;;;;;;;20.01;80.62;101204.44;5019253;28;20033;-75
2023/06/24 06:47:56;;;;;;;0.00;0.00;;;;;;;20.02;80.92;101197.75;5008542;28;20467;-75
2023/06/24 06:50:21;;;;;;;0.00;0.00;;;;;;;20.09;80.80;101207.59;5028574;28;20383;-75
2023/06/24 06:52:47;;;;;;;0.00;0.00;;;;;;;20.16;80.71;101213.56;5041879;28;20573;-74
2023/06/24 06:55:12;;;;;;;0.00;0.00;;;;;;;20.29;80.76;101212.69;5045422;28;20025;-75
2023/06/24 06:57:38;;;;;;;0.00;0.00;;;;;;;20.43;80.28;101222.94;5035399;28;20055;-74
2023/06/24 07:00:04;;;;;;;0.00;0.00;;;;;;;20.35;80.15;101221.72;5026323;28;20498;-74
2023/06/24 07:02:29;;;;;;;0.00;0.00;;;;;;;20.20;80.15;101226.50;5049635;28;20041;-74
2023/06/24 07:04:55;;;;;;;0.00;0.00;;;;;;;20.15;80.70;101242.44;5023177;28;20036;-75
2023/06/24 07:07:20;;;;;;;0.00;0.00;;;;;;;20.37;80.65;101245.28;5038309;28;20090;-77
2023/06/24 07:09:47;;;;;;;0.00;0.00;;;;;;;20.54;79.92;101236.28;5044451;28;20032;-75
2023/06/24 07:12:16;;;;;;;0.00;0.00;;;;;;;20.66;79.57;101238.56;5061533;28;20098;-74
2023/06/24 07:14:41;;;;;;;0.00;0.00;;;;;;;20.78;79.21;101239.91;5040464;28;20032;-73
2023/06/24 07:17:07;;;;;;;0.00;0.00;;;;;;;21.03;78.20;101242.06;5034362;28;20483;-75
2023/06/24 07:19:33;;;;;;;0.00;0.00;;;;;;;21.17;77.42;101246.72;5059322;28;20043;-74
2023/06/24 07:21:58;;;;;;;0.00;0.00;;;;;;;21.42;77.02;101248.84;5061583;28;20033;-74
2023/06/24 07:24:23;;;;;;;0.00;0.00;;;;;;;21.81;75.97;101251.16;5046961;28;20036;-75
2023/06/24 07:26:49;;;;;;;0.00;0.00;;;;;;;21.93;75.00;101254.13;5045383;28;20434;-73
2023/06/24 07:29:14;;;;;;;0.00;0.00;;;;;;;22.16;74.90;101257.63;5044028;28;20035;-72
2023/06/24 07:31:40;;;;;;;0.00;0.00;;;;;;;22.33;73.52;101251.31;5028518;28;20025;-77
2023/06/24 07:34:08;;;;;;;0.00;0.00;;;;;;;22.88;72.65;101251.78;5059855;28;20021;-76
2023/06/24 07:36:33;;;;;;;0.00;0.00;;;;;;;23.58;69.86;101246.06;5040851;28;20386;-77
2023/06/24 07:38:59;;;;;;;0.00;0.00;;;;;;;24.00;68.04;101230.25;5046604;28;20025;-77
2023/06/24 07:41:25;;;;;;;0.00;0.00;;;;;;;24.53;65.56;101253.06;5050549;28;20732;-78
2023/06/24 07:43:52;;;;;;;0.00;0.00;;;;;;;24.37;64.10;101250.06;5032594;28;20195;-77
2023/06/24 07:46:18;;;;;;;0.00;0.00;;;;;;;24.15;65.44;101242.84;5031329;28;20029;-76
2023/06/24 07:48:46;;;;;;;0.00;0.00;;;;;;;24.01;65.31;101231.91;5038609;28;20029;-77
2023/06/24 07:51:11;;;;;;;0.00;0.00;;;;;;;23.97;65.33;101235.72;5047462;28;20037;-76
2023/06/24 07:53:45;;;;;;;0.00;0.00;;;;;;;24.14;64.64;101246.78;5012284;28;20027;-78
2023/06/24 07:56:11;;;;;;;0.00;0.00;;;;;;;24.33;63.94;101246.31;5016229;28;20033;-78
2023/06/24 07:58:37;;;;;;;0.00;0.00;;;;;;;24.22;63.57;101231.94;5044067;28;20075;-77
2023/06/24 08:01:03;;;;;;;0.00;0.00;;;;;;;24.02;63.22;101232.72;5044654;28;20062;-77
2023/06/24 08:03:29;;;;;;;0.00;0.00;;;;;;;23.90;63.57;101236.22;5062895;28;20053;-77
2023/06/24 08:05:57;;;;;;;0.00;0.00;;;;;;;23.78;63.25;101244.50;5048907;28;20728;-79
2023/06/24 08:08:22;;;;;;;0.00;0.00;;;;;;;23.65;63.67;101224.03;5058557;28;20383;-78
2023/06/24 08:10:48;;;;;;;0.00;0.00;;;;;;;24.34;62.90;101256.34;5030991;28;20084;-80
2023/06/24 08:13:15;;;;;;;0.00;0.00;;;;;;;24.64;61.41;101252.69;5068985;28;20055;-77
2023/06/24 08:15:41;;;;;;;0.00;0.00;;;;;;;24.45;61.44;101234.38;5077881;28;20067;-77
2023/06/24 08:18:06;;;;;;;0.00;0.00;;;;;;;24.40;61.09;101221.44;5077412;28;20056;-78
2023/06/24 08:20:35;;;;;;;0.00;0.00;;;;;;;24.84;60.89;101242.66;5058293;28;20039;-77
2023/06/24 08:23:00;;;;;;;0.00;0.00;;;;;;;24.88;59.77;101240.78;5061371;28;20078;-77
2023/06/24 08:25:26;;;;;;;0.00;0.00;;;;;;;25.29;59.03;101246.59;5050991;28;21597;-77
2023/06/24 08:27:52;;;;;;;0.00;0.00;;;;;;;25.75;57.76;101247.41;5070517;28;20035;-78
2023/06/24 08:30:18;;;;;;;0.00;0.00;;;;;;;25.99;56.83;101231.72;5064070;28;20671;-77
2023/06/24 08:32:43;;;;;;;0.00;0.00;;;;;;;26.44;55.57;101230.72;5062416;28;20028;-77
2023/06/24 08:35:09;;;;;;;0.00;0.00;;;;;;;26.60;55.05;101228.00;5058574;28;20020;-76
2023/06/24 08:37:43;;;;;;;0.00;0.00;;;;;;;26.71;54.44;101234.75;5050635;28;20035;-78
2023/06/24 08:40:09;;;;;;;0.00;0.00;;;;;;;26.87;53.88;101232.00;5058395;28;20026;-77
2023/06/24 08:42:34;;;;;;;0.00;0.00;;;;;;;27.03;53.66;101245.25;5066339;28;20017;-76
2023/06/24 08:45:00;;;;;;;0.00;0.00;;;;;;;27.07;52.77;101232.13;5037396;28;20107;-78
2023/06/24 08:47:28;;;;;;;0.00;0.00;;;;;;;26.99;52.07;101233.94;5054065;28;20028;-77
2023/06/24 08:50:03;;;;;;;0.00;0.00;;;;;;;27.16;51.04;101215.91;5061700;28;20440;-78
2023/06/24 08:52:31;;;;;;;0.00;0.00;;;;;;;27.22;51.42;101222.94;5078825;28;20085;-76
2023/06/24 08:54:59;;;;;;;0.00;0.00;;;;;;;26.99;51.76;101231.13;5046975;28;20035;-77
2023/06/24 08:57:24;;;;;;;0.00;0.00;;;;;;;27.08;51.72;101236.56;5070653;28;20450;-78
2023/06/24 08:59:50;;;;;;;0.00;0.00;;;;;;;26.60;52.75;101217.59;5061167;28;20048;-77
2023/06/24 09:02:18;;;;;;;0.00;0.00;;;;;;;26.43;52.94;101223.47;5068527;28;20032;-77
2023/06/24 09:04:43;;;;;;;0.00;0.00;;;;;;;26.74;53.00;101236.06;5047268;28;20031;-77
2023/06/24 09:07:09;;;;;;;0.00;0.00;;;;;;;27.00;52.05;101218.72;5086554;28;20024;-77
2023/06/24 09:09:45;;;;;;;0.00;0.00;;;;;;;27.47;51.58;101232.00;5043759;28;20051;-78
2023/06/24 09:12:14;;;;;;;0.00;0.00;;;;;;;27.93;50.07;101225.88;5082044;28;20027;-78
2023/06/24 09:14:40;;;;;;;0.00;0.00;;;;;;;28.29;49.26;101243.59;5065556;28;20020;-77
2023/06/24 09:17:06;;;;;;;0.00;0.00;;;;;;;28.31;49.01;101244.03;5049944;28;20109;-79
2023/06/24 09:19:36;;;;;;;0.00;0.00;;;;;;;28.36;49.26;101226.88;5078499;28;20032;-77
2023/06/24 09:22:17;;;;;;;0.00;0.00;;;;;;;28.81;47.78;101229.41;5068398;28;20098;-76
2023/06/24 09:24:49;;;;;;;0.00;0.00;;;;;;;28.84;46.92;101223.03;5060153;28;20015;-77
2023/06/24 09:27:21;;;;;;;0.00;0.00;;;;;;;28.68;46.70;101243.66;5047315;28;20036;-77
2023/06/24 09:29:47;;;;;;;0.00;0.00;;;;;;;28.55;47.25;101223.25;5054834;28;20032;-77
2023/06/24 09:32:12;;;;;;;0.00;0.00;;;;;;;28.30;47.55;101234.00;5052841;28;20031;-75
2023/06/24 09:34:38;;;;;;;0.00;0.00;;;;;;;28.16;48.08;101228.84;5049262;28;20081;-77
2023/06/24 09:37:04;;;;;;;0.00;0.00;;;;;;;28.30;47.93;101234.00;5060029;28;20073;-77
2023/06/24 09:39:36;;;;;;;0.00;0.00;;;;;;;28.68;47.29;101229.59;5063695;28;21146;-77
2023/06/24 09:42:06;;;;;;;0.00;0.00;;;;;;;29.27;46.18;101229.50;5053950;28;20068;-77
2023/06/24 09:44:35;;;;;;;0.00;0.00;;;;;;;28.91;46.05;101200.66;5064284;28;20028;-77
2023/06/24 09:47:00;;;;;;;0.00;0.00;;;;;;;28.84;47.05;101211.78;5067990;28;20470;-77
2023/06/24 09:49:26;;;;;;;0.00;0.00;;;;;;;29.03;46.65;101200.50;5048923;28;20040;-77
2023/06/24 09:52:01;;;;;;;0.00;0.00;;;;;;;29.56;46.08;101219.53;5033088;28;20032;-78
2023/06/24 09:54:28;;;;;;;0.00;0.00;;;;;;;29.42;45.32;101216.47;5056973;28;20031;-78
2023/06/24 09:56:58;;;;;;;0.00;0.00;;;;;;;29.76;45.16;101217.44;5058772;28;20012;-77
2023/06/24 09:59:25;;;;;;;0.00;0.00;;;;;;;29.97;45.12;101199.25;5077638;28;20489;-76
2023/06/24 10:01:53;;;;;;;0.00;0.00;;;;;;;30.39;43.88;101192.56;5082651;28;20024;-77
2023/06/24 10:04:21;;;;;;;0.00;0.00;;;;;;;30.79;42.35;101207.97;5051325;28;20043;-77
2023/06/24 10:06:50;;;;;;;0.00;0.00;;;;;;;30.90;42.70;101195.97;5061870;28;20023;-76
2023/06/24 10:09:17;;;;;;;0.00;0.00;;;;;;;31.31;42.23;101199.63;5051520;28;20753;-77
2023/06/24 10:11:45;;;;;;;0.00;0.00;;;;;;;31.00;41.59;101191.66;5047925;28;20031;-76
2023/06/24 10:14:10;;;;;;;0.00;0.00;;;;;;;31.14;42.07;101201.06;5066086;28;20067;-78
2023/06/24 10:16:36;;;;;;;0.00;0.00;;;;;;;32.25;40.42;101179.69;5071235;28;20201;-78
2023/06/24 10:19:03;;;;;;;0.00;0.00;;;;;;;32.42;38.74;101195.09;5052425;28;20032;-78
2023/06/24 10:21:50;;;;;;;0.00;0.00;;;;;;;31.73;39.40;101193.91;5056160;28;20025;-77
2023/06/24 10:24:38;;;;;;;0.00;0.00;;;;;;;31.83;39.12;101188.34;5056480;28;20048;-79
2023/06/24 10:27:14;;;;;;;0.00;0.00;;;;;;;33.95;37.61;101192.03;5066634;28;20028;-79
2023/06/24 10:29:45;;;;;;;0.00;0.00;;;;;;;37.55;32.08;101177.09;5050399;28;20036;-80
2023/06/24 10:32:11;;;;;;;0.00;0.00;;;;;;;39.40;28.89;101181.25;5053842;28;20025;-78
2023/06/24 10:34:43;;;;;;;0.00;0.00;;;;;;;40.54;27.75;101187.09;5054101;28;20075;-77
2023/06/24 10:37:13;;;;;;;0.00;0.00;;;;;;;42.05;23.91;101192.63;5083067;28;20035;-79
2023/06/24 10:39:40;;;;;;;0.00;0.00;;;;;;;44.22;21.68;101178.66;5063815;28;20024;-78
2023/06/24 10:42:33;;;;;;;0.00;0.00;;;;;;;42.38;23.69;101177.88;5074099;28;20764;-79
2023/06/24 10:45:15;;;;;;;0.00;0.00;;;;;;;43.61;21.80;101169.94;5049790;28;20028;-77
2023/06/24 10:48:04;;;;;;;0.00;0.00;;;;;;;41.96;23.61;101175.34;5068956;28;20438;-79
2023/06/24 10:50:32;;;;;;;0.00;0.00;;;;;;;42.21;22.94;101157.97;5051495;28;20039;-78
2023/06/24 10:53:00;;;;;;;0.00;0.00;;;;;;;44.46;21.43;101147.06;5067065;28;20035;-78
2023/06/24 10:55:29;;;;;;;0.00;0.00;;;;;;;46.79;19.80;101138.00;5053512;28;20016;-80
2023/06/24 11:01:15;;;;;;;0.00;0.00;;;;;;;47.29;17.89;101129.22;4997024;28;20045;-78
2023/06/24 11:03:55;;;;;;;0.00;0.00;;;;;;;47.99;17.46;101115.75;5028596;28;20047;-76
2023/06/24 11:06:23;;;;;;;0.00;0.00;;;;;;;48.31;17.25;101117.84;5067063;28;20383;-76
2023/06/24 11:08:51;;;;;;;0.00;0.00;;;;;;;49.96;15.03;101123.06;5056746;28;20181;-78
2023/06/24 11:11:26;;;;;;;0.00;0.00;;;;;;;49.63;15.44;101130.41;5067647;28;22023;-79
2023/06/24 11:13:51;;;;;;;0.00;0.00;;;;;;;49.13;15.74;101119.38;5056210;28;20394;-78
2023/06/24 11:16:20;;;;;;;0.00;0.00;;;;;;;47.96;16.46;101108.09;5060532;28;20052;-78
2023/06/24 11:18:46;;;;;;;0.00;0.00;;;;;;;47.20;16.73;101109.09;5047300;28;20036;-78
2023/06/24 11:21:11;;;;;;;0.00;0.00;;;;;;;47.23;17.13;101098.59;5056818;28;20024;-79
2023/06/24 11:23:42;;;;;;;0.00;0.00;;;;;;;48.18;16.09;101098.00;5031804;28;20024;-77
2023/06/24 11:26:07;;;;;;;0.00;0.00;;;;;;;47.71;16.13;101107.56;5060736;28;20042;-78
2023/06/24 11:28:33;;;;;;;0.00;0.00;;;;;;;44.55;18.45;101121.06;5094528;28;20028;-78